Time;durP1;ratioP1;P1;durP2;ratioP2;P2;SDS_P1;SDS_P2;PMS_P1;PMS_P2;Temp;Humidity;BMP_temperature;BMP_pressure;BME280_temperature;BME280_humidity;BME280_pressure;Samples;Min_cycle;Max_cycle;Signal;HPM_P1;HPM_P2
2021/09/15 00:01:27;;;;;;;10.35;9.30;;;;;;;;;;5052535;28;20401;-63
2021/09/15 00:03:54;;;;;;;10.93;9.25;;;;;;;;;;5034531;28;20468;-64
2021/09/15 00:06:20;;;;;;;12.35;9.68;;;;;;;;;;5052613;28;20110;-63
2021/09/15 00:08:47;;;;;;;9.77;8.57;;;;;;;;;;5052364;28;20056;-63
2021/09/15 00:11:17;;;;;;;11.13;8.95;;;;;;;;;;5052437;28;20053;-64
2021/09/15 00:13:43;;;;;;;10.13;9.10;;;;;;;;;;5052126;28;20068;-64
2021/09/15 00:16:10;;;;;;;9.95;8.98;;;;;;;;;;5052285;28;20106;-63
2021/09/15 00:18:37;;;;;;;11.02;8.50;;;;;;;;;;5052313;28;20107;-63
2021/09/15 00:21:03;;;;;;;10.43;9.40;;;;;;;;;;5034430;28;20098;-63
2021/09/15 00:23:30;;;;;;;9.50;8.57;;;;;;;;;;5051825;28;20049;-63
2021/09/15 00:25:57;;;;;;;9.65;8.57;;;;;;;;;;5052082;28;20462;-63
2021/09/15 00:28:23;;;;;;;14.07;8.82;;;;;;;;;;5052206;28;20052;-64
2021/09/15 00:30:50;;;;;;;8.85;8.05;;;;;;;;;;5052009;28;20503;-64
2021/09/15 00:33:16;;;;;;;9.90;8.68;;;;;;;;;;5051549;28;20122;-63
2021/09/15 00:35:43;;;;;;;9.73;8.63;;;;;;;;;;5052119;28;20048;-63
2021/09/15 00:38:09;;;;;;;13.23;8.63;;;;;;;;;;5051474;28;20103;-63
2021/09/15 00:40:36;;;;;;;12.77;9.20;;;;;;;;;;5051851;28;20106;-64
2021/09/15 00:43:03;;;;;;;10.40;8.18;;;;;;;;;;5051544;28;20111;-64
2021/09/15 00:45:29;;;;;;;10.57;7.50;;;;;;;;;;5051891;28;20053;-64
2021/09/15 00:47:56;;;;;;;10.68;8.65;;;;;;;;;;5052100;28;20052;-64
2021/09/15 00:50:22;;;;;;;10.82;9.10;;;;;;;;;;5051812;28;20492;-63
2021/09/15 00:52:49;;;;;;;10.07;8.20;;;;;;;;;;5051638;28;20057;-64
2021/09/15 00:55:16;;;;;;;9.48;8.60;;;;;;;;;;5052061;28;20053;-63
2021/09/15 00:57:42;;;;;;;11.15;8.48;;;;;;;;;;5051767;28;20061;-63
2021/09/15 01:00:09;;;;;;;9.45;8.55;;;;;;;;;;5051547;28;20048;-63
2021/09/15 01:02:36;;;;;;;9.30;8.40;;;;;;;;;;5051661;28;20056;-64
2021/09/15 01:05:03;;;;;;;9.73;8.30;;;;;;;;;;5033741;28;20051;-63
2021/09/15 01:07:30;;;;;;;9.38;8.18;;;;;;;;;;5051607;28;20459;-64
2021/09/15 01:09:57;;;;;;;9.45;8.55;;;;;;;;;;5051449;28;20049;-64
2021/09/15 01:12:23;;;;;;;8.73;7.90;;;;;;;;;;5051388;28;20091;-64
2021/09/15 01:14:50;;;;;;;9.57;8.48;;;;;;;;;;5017502;28;20049;-63
2021/09/15 01:17:17;;;;;;;10.80;8.43;;;;;;;;;;5051542;28;20056;-64
2021/09/15 01:19:43;;;;;;;9.93;8.68;;;;;;;;;;5051455;28;20458;-63
2021/09/15 01:22:10;;;;;;;9.60;8.55;;;;;;;;;;5051450;28;20049;-63
2021/09/15 01:24:36;;;;;;;10.30;9.02;;;;;;;;;;5051321;28;20044;-63
2021/09/15 01:27:03;;;;;;;12.45;9.57;;;;;;;;;;5051331;28;20107;-63
2021/09/15 01:29:32;;;;;;;9.48;8.48;;;;;;;;;;5051486;28;20056;-64
2021/09/15 01:32:09;;;;;;;12.75;9.20;;;;;;;;;;5051187;28;20045;-64
2021/09/15 01:34:39;;;;;;;9.52;8.68;;;;;;;;;;5051710;28;20500;-64
2021/09/15 01:37:06;;;;;;;11.85;8.35;;;;;;;;;;5051286;28;20056;-64
2021/09/15 01:39:33;;;;;;;9.82;8.90;;;;;;;;;;5033545;28;20110;-64
2021/09/15 01:42:01;;;;;;;10.35;9.20;;;;;;;;;;5051088;28;20103;-64
2021/09/15 01:44:38;;;;;;;9.43;8.45;;;;;;;;;;5051136;28;20099;-64
2021/09/15 01:47:07;;;;;;;10.60;9.25;;;;;;;;;;5051158;28;20199;-64
2021/09/15 01:49:36;;;;;;;10.02;9.02;;;;;;;;;;5051959;28;20048;-64
2021/09/15 01:52:03;;;;;;;15.18;9.65;;;;;;;;;;5054810;28;20167;-64
2021/09/15 01:54:30;;;;;;;14.30;10.13;;;;;;;;;;5054873;28;20099;-64
2021/09/15 01:56:57;;;;;;;11.13;9.38;;;;;;;;;;5054897;28;20072;-64
2021/09/15 01:59:24;;;;;;;11.35;9.48;;;;;;;;;;5054917;28;20087;-64
2021/09/15 02:01:50;;;;;;;10.98;9.32;;;;;;;;;;5054655;28;20053;-64
2021/09/15 02:04:17;;;;;;;11.43;9.88;;;;;;;;;;5054719;28;20569;-64
2021/09/15 02:06:44;;;;;;;9.95;8.95;;;;;;;;;;5054863;28;20045;-64
2021/09/15 02:09:10;;;;;;;12.05;9.60;;;;;;;;;;5054669;28;20168;-64
2021/09/15 02:11:37;;;;;;;11.95;8.90;;;;;;;;;;5054919;28;20459;-64
2021/09/15 02:14:04;;;;;;;11.18;9.40;;;;;;;;;;5054305;28;20581;-64
2021/09/15 02:16:32;;;;;;;10.43;8.65;;;;;;;;;;5054609;28;20099;-65
2021/09/15 02:18:58;;;;;;;9.10;8.15;;;;;;;;;;5054731;28;20111;-64
2021/09/15 02:21:25;;;;;;;8.95;8.05;;;;;;;;;;5054525;28;20044;-64
2021/09/15 02:23:52;;;;;;;9.55;8.57;;;;;;;;;;5054020;28;20466;-64
2021/09/15 02:26:18;;;;;;;12.88;8.88;;;;;;;;;;5054562;28;20083;-64
2021/09/15 02:28:45;;;;;;;10.10;9.10;;;;;;;;;;5054362;28;20053;-64
2021/09/15 02:31:11;;;;;;;10.65;8.63;;;;;;;;;;5054553;28;20496;-64
2021/09/15 02:33:38;;;;;;;10.75;8.20;;;;;;;;;;5053841;28;20045;-64
2021/09/15 02:36:05;;;;;;;10.98;9.73;;;;;;;;;;5054239;28;20052;-64
2021/09/15 02:38:31;;;;;;;11.68;8.80;;;;;;;;;;5054310;28;20049;-64
2021/09/15 02:40:58;;;;;;;9.90;8.50;;;;;;;;;;5053977;28;20045;-64
2021/09/15 02:43:24;;;;;;;11.27;9.00;;;;;;;;;;5053967;28;20126;-64
2021/09/15 02:45:51;;;;;;;10.70;8.20;;;;;;;;;;5054032;28;20114;-64
2021/09/15 02:48:17;;;;;;;9.43;8.48;;;;;;;;;;5054139;28;20053;-64
2021/09/15 02:50:44;;;;;;;9.13;7.75;;;;;;;;;;5053993;28;20041;-64
2021/09/15 02:53:11;;;;;;;9.10;7.47;;;;;;;;;;5053547;28;20057;-64
2021/09/15 02:55:37;;;;;;;9.52;7.60;;;;;;;;;;5053835;28;20500;-64
2021/09/15 02:58:04;;;;;;;10.85;7.75;;;;;;;;;;5053868;28;20110;-64
2021/09/15 03:00:31;;;;;;;7.97;7.25;;;;;;;;;;5053449;28;20049;-64
2021/09/15 03:02:57;;;;;;;12.15;7.65;;;;;;;;;;5053442;28;20049;-64
2021/09/15 03:05:24;;;;;;;9.48;8.05;;;;;;;;;;5053582;28;20048;-64
2021/09/15 03:07:51;;;;;;;8.95;8.05;;;;;;;;;;5053566;28;20053;-64
2021/09/15 03:10:17;;;;;;;9.68;7.40;;;;;;;;;;5053761;28;20053;-64
2021/09/15 03:12:44;;;;;;;8.43;7.25;;;;;;;;;;5053331;28;20557;-64
2021/09/15 03:15:11;;;;;;;9.07;7.63;;;;;;;;;;5053447;28;20115;-64
2021/09/15 03:17:37;;;;;;;8.32;7.25;;;;;;;;;;5053513;28;20045;-64
2021/09/15 03:20:05;;;;;;;8.32;6.88;;;;;;;;;;5053227;28;20053;-65
2021/09/15 03:22:32;;;;;;;7.88;7.07;;;;;;;;;;5053219;28;20263;-64
2021/09/15 03:24:59;;;;;;;7.40;6.70;;;;;;;;;;5053175;28;20140;-64
2021/09/15 03:27:26;;;;;;;7.55;6.70;;;;;;;;;;5053378;28;20053;-64
2021/09/15 03:29:53;;;;;;;7.47;6.78;;;;;;;;;;5053208;28;20057;-64
2021/09/15 03:32:19;;;;;;;7.57;6.60;;;;;;;;;;5053137;28;20053;-64
2021/09/15 03:34:46;;;;;;;7.78;6.35;;;;;;;;;;5053038;28;20061;-64
2021/09/15 03:37:12;;;;;;;8.10;6.85;;;;;;;;;;5053020;28;20087;-64
2021/09/15 03:39:39;;;;;;;8.98;6.57;;;;;;;;;;5053164;28;20115;-64
2021/09/15 03:42:06;;;;;;;6.75;6.05;;;;;;;;;;5052678;28;20048;-63
2021/09/15 03:44:32;;;;;;;8.23;6.00;;;;;;;;;;5052903;28;20543;-64
2021/09/15 03:46:59;;;;;;;9.80;5.85;;;;;;;;;;5052922;28;20049;-64
2021/09/15 03:49:26;;;;;;;8.43;6.13;;;;;;;;;;5052817;28;20056;-64
2021/09/15 03:51:52;;;;;;;6.95;6.30;;;;;;;;;;5052537;28;20079;-64
2021/09/15 03:54:19;;;;;;;7.40;6.10;;;;;;;;;;5052772;28;20118;-64
2021/09/15 03:56:46;;;;;;;8.05;6.40;;;;;;;;;;5052691;28;20049;-64
2021/09/15 03:59:12;;;;;;;8.05;5.78;;;;;;;;;;5052795;28;20665;-64
2021/09/15 04:01:39;;;;;;;6.80;5.78;;;;;;;;;;5052712;28;20044;-65
2021/09/15 04:04:06;;;;;;;8.60;6.35;;;;;;;;;;5052190;28;20060;-64
2021/09/15 04:06:32;;;;;;;6.72;6.03;;;;;;;;;;5052591;28;20052;-64
2021/09/15 04:08:59;;;;;;;7.25;6.38;;;;;;;;;;5052444;28;20056;-64
2021/09/15 04:11:25;;;;;;;7.57;6.85;;;;;;;;;;5052485;28;20114;-64
2021/09/15 04:13:52;;;;;;;8.85;6.22;;;;;;;;;;5051401;28;20508;-64
2021/09/15 04:16:19;;;;;;;9.18;6.25;;;;;;;;;;5052849;28;20045;-64
2021/09/15 04:18:45;;;;;;;7.45;6.28;;;;;;;;;;5052549;28;20053;-64
2021/09/15 04:21:12;;;;;;;7.32;6.35;;;;;;;;;;5052135;28;20049;-64
2021/09/15 04:24:08;;;;;;;8.30;7.18;;;;;;;;;;5052031;28;20045;-64
2021/09/15 04:31:57;;;;;;;18.02;11.85;;;;;;;;;;5051883;28;20561;-64
2021/09/15 04:34:24;;;;;;;20.23;11.70;;;;;;;;;;5051852;28;20052;-64
2021/09/15 04:36:51;;;;;;;18.25;11.95;;;;;;;;;;5051948;28;20103;-64
2021/09/15 04:39:17;;;;;;;14.20;9.98;;;;;;;;;;5051999;28;20516;-64
2021/09/15 04:41:44;;;;;;;15.43;9.73;;;;;;;;;;5051767;28;20094;-64
2021/09/15 04:44:10;;;;;;;9.00;7.72;;;;;;;;;;5051650;28;20052;-64
2021/09/15 04:46:37;;;;;;;9.15;8.13;;;;;;;;;;5051857;28;20114;-64
2021/09/15 04:49:03;;;;;;;9.07;7.50;;;;;;;;;;5051644;28;20057;-64
2021/09/15 04:51:30;;;;;;;13.45;8.85;;;;;;;;;;5051806;28;20045;-64
2021/09/15 04:53:57;;;;;;;10.32;7.93;;;;;;;;;;5051445;28;20464;-64
2021/09/15 04:56:23;;;;;;;10.13;8.35;;;;;;;;;;5051880;28;20048;-64
2021/09/15 04:58:50;;;;;;;11.20;9.00;;;;;;;;;;5051682;28;20492;-64
2021/09/15 05:01:16;;;;;;;11.02;8.80;;;;;;;;;;5033906;28;20045;-65
2021/09/15 05:03:43;;;;;;;9.77;8.43;;;;;;;;;;5051347;28;20064;-64
2021/09/15 05:06:10;;;;;;;9.52;8.63;;;;;;;;;;5051485;28;20049;-63
2021/09/15 05:08:36;;;;;;;10.38;9.38;;;;;;;;;;5051615;28;20126;-63
2021/09/15 05:11:03;;;;;;;10.40;8.40;;;;;;;;;;5051427;28;20052;-63
2021/09/15 05:13:30;;;;;;;9.32;8.30;;;;;;;;;;5051291;28;20053;-63
2021/09/15 05:15:56;;;;;;;10.00;8.70;;;;;;;;;;5051457;28;20463;-63
2021/09/15 05:18:23;;;;;;;11.55;8.45;;;;;;;;;;5051557;28;20053;-63
2021/09/15 05:20:50;;;;;;;11.95;8.57;;;;;;;;;;5051443;28;20052;-63
2021/09/15 05:23:17;;;;;;;13.25;7.97;;;;;;;;;;5051595;28;20396;-63
2021/09/15 05:25:43;;;;;;;10.98;9.20;;;;;;;;;;5055614;28;20056;-63
2021/09/15 05:28:10;;;;;;;11.18;9.45;;;;;;;;;;5055411;28;20052;-63
2021/09/15 05:30:36;;;;;;;11.73;8.00;;;;;;;;;;5055532;28;20044;-63
2021/09/15 05:33:03;;;;;;;11.25;7.47;;;;;;;;;;5055050;28;20098;-63
2021/09/15 05:35:30;;;;;;;11.40;8.50;;;;;;;;;;5055210;28;20060;-64
2021/09/15 05:37:56;;;;;;;9.05;8.15;;;;;;;;;;5055556;28;20049;-64
2021/09/15 05:40:23;;;;;;;8.98;8.07;;;;;;;;;;5055397;28;20044;-63
2021/09/15 05:42:49;;;;;;;9.73;8.13;;;;;;;;;;5054987;28;20041;-63
2021/09/15 05:45:16;;;;;;;10.75;7.60;;;;;;;;;;5055147;28;20052;-64
2021/09/15 05:47:43;;;;;;;8.13;7.05;;;;;;;;;;5055080;28;20053;-63
2021/09/15 05:50:09;;;;;;;10.25;7.85;;;;;;;;;;5054997;28;20052;-64
2021/09/15 05:52:36;;;;;;;11.25;7.97;;;;;;;;;;5054892;28;20041;-64
2021/09/15 05:55:03;;;;;;;8.90;7.32;;;;;;;;;;5054829;28;20057;-64
2021/09/15 05:57:30;;;;;;;9.25;6.80;;;;;;;;;;5055289;28;20049;-64
2021/09/15 05:59:56;;;;;;;9.05;7.25;;;;;;;;;;5054915;28;20091;-63
2021/09/15 06:02:23;;;;;;;10.65;8.13;;;;;;;;;;5054610;28;20045;-64
2021/09/15 06:04:49;;;;;;;13.13;7.53;;;;;;;;;;5054741;28;20053;-63
2021/09/15 06:07:16;;;;;;;10.18;7.45;;;;;;;;;;5054895;28;20048;-64
2021/09/15 06:09:43;;;;;;;11.13;8.30;;;;;;;;;;5055018;28;20099;-64
2021/09/15 06:12:09;;;;;;;10.23;8.23;;;;;;;;;;5054435;28;20092;-64
2021/09/15 06:14:36;;;;;;;10.77;7.60;;;;;;;;;;5054848;28;20106;-64
2021/09/15 06:17:03;;;;;;;10.60;8.02;;;;;;;;;;5054472;28;20048;-64
2021/09/15 06:19:29;;;;;;;11.25;7.90;;;;;;;;;;5054636;28;20106;-64
2021/09/15 06:21:56;;;;;;;9.23;7.32;;;;;;;;;;5036603;28;20045;-64
2021/09/15 06:24:22;;;;;;;11.20;7.90;;;;;;;;;;5054399;28;20103;-63
2021/09/15 06:26:51;;;;;;;11.75;8.65;;;;;;;;;;5054665;28;20466;-63
2021/09/15 06:29:18;;;;;;;9.30;7.25;;;;;;;;;;5054432;28;20048;-63
2021/09/15 06:31:45;;;;;;;7.80;7.00;;;;;;;;;;5054274;28;20049;-64
2021/09/15 06:34:12;;;;;;;9.50;7.20;;;;;;;;;;5054079;28;20135;-64
2021/09/15 06:36:39;;;;;;;9.63;7.47;;;;;;;;;;5035799;28;20053;-64
2021/09/15 06:39:09;;;;;;;9.80;7.38;;;;;;;;;;5054147;28;20053;-63
2021/09/15 06:41:35;;;;;;;11.80;8.52;;;;;;;;;;5036515;28;20481;-64
2021/09/15 06:44:02;;;;;;;12.70;8.63;;;;;;;;;;5053794;28;20527;-64
2021/09/15 06:46:29;;;;;;;11.05;8.23;;;;;;;;;;5054157;28;20401;-64
2021/09/15 06:48:59;;;;;;;11.20;8.38;;;;;;;;;;5053989;28;20049;-64
2021/09/15 06:51:26;;;;;;;12.02;8.30;;;;;;;;;;5054058;28;20049;-64
2021/09/15 06:53:53;;;;;;;10.77;8.00;;;;;;;;;;5053604;28;20106;-63
2021/09/15 06:56:19;;;;;;;11.25;8.40;;;;;;;;;;5053966;28;20098;-64
2021/09/15 06:58:46;;;;;;;12.45;8.30;;;;;;;;;;5053887;28;20052;-63
2021/09/15 07:01:12;;;;;;;9.82;7.72;;;;;;;;;;5053557;28;20500;-64
2021/09/15 07:03:40;;;;;;;12.55;7.93;;;;;;;;;;5053576;28;20049;-63
2021/09/15 07:06:06;;;;;;;10.77;7.90;;;;;;;;;;5053569;28;20045;-63
2021/09/15 07:08:33;;;;;;;11.93;7.30;;;;;;;;;;5053651;28;20566;-64
2021/09/15 07:11:00;;;;;;;10.30;7.80;;;;;;;;;;5053527;28;20132;-64
2021/09/15 07:13:28;;;;;;;11.43;8.20;;;;;;;;;;5053370;28;20049;-64
2021/09/15 07:15:57;;;;;;;10.48;7.63;;;;;;;;;;5053372;28;20049;-64
2021/09/15 07:18:26;;;;;;;9.30;7.18;;;;;;;;;;5053453;28;20064;-64
2021/09/15 07:20:54;;;;;;;8.18;6.93;;;;;;;;;;5053328;28;20130;-64
2021/09/15 07:23:21;;;;;;;10.48;7.45;;;;;;;;;;5053071;28;20111;-64
2021/09/15 07:25:47;;;;;;;10.75;7.72;;;;;;;;;;5053371;28;20052;-64
2021/09/15 07:28:14;;;;;;;10.98;7.90;;;;;;;;;;5053239;28;20049;-64
2021/09/15 07:30:41;;;;;;;9.30;7.60;;;;;;;;;;5053203;28;20053;-64
2021/09/15 07:33:07;;;;;;;11.07;7.63;;;;;;;;;;5052729;28;20053;-64
2021/09/15 07:35:34;;;;;;;11.05;7.90;;;;;;;;;;5073822;23;20053;-69
2021/09/15 07:38:01;;;;;;;11.00;7.82;;;;;;;;;;5053047;28;20053;-69
2021/09/15 07:40:27;;;;;;;9.43;6.97;;;;;;;;;;5053118;28;20079;-69
2021/09/15 07:42:54;;;;;;;13.15;8.00;;;;;;;;;;5052640;28;20041;-69
2021/09/15 07:45:20;;;;;;;10.07;8.18;;;;;;;;;;5035410;28;20049;-69
2021/09/15 07:47:47;;;;;;;10.63;6.72;;;;;;;;;;5051803;28;20059;-69
2021/09/15 07:50:14;;;;;;;8.98;7.15;;;;;;;;;;5052915;28;20057;-69
2021/09/15 07:52:40;;;;;;;9.82;7.30;;;;;;;;;;5052792;28;20045;-69
2021/09/15 07:55:07;;;;;;;8.48;6.88;;;;;;;;;;5052599;28;20064;-69
2021/09/15 07:57:34;;;;;;;7.50;5.80;;;;;;;;;;5052847;28;20470;-69
2021/09/15 08:00:03;;;;;;;10.18;6.22;;;;;;;;;;5052615;28;20049;-69
2021/09/15 08:02:29;;;;;;;9.93;6.70;;;;;;;;;;5052386;28;20404;-69
2021/09/15 08:04:56;;;;;;;9.57;6.50;;;;;;;;;;5052491;28;20045;-69
2021/09/15 08:07:22;;;;;;;8.40;5.85;;;;;;;;;;5052639;28;20052;-69
2021/09/15 08:09:49;;;;;;;7.88;6.20;;;;;;;;;;5052591;28;20099;-69
2021/09/15 08:12:16;;;;;;;7.30;6.30;;;;;;;;;;5052174;28;20053;-69
2021/09/15 08:14:42;;;;;;;11.85;5.93;;;;;;;;;;5052472;28;20110;-69
2021/09/15 08:17:09;;;;;;;6.75;5.90;;;;;;;;;;5052422;28;20057;-69
2021/09/15 08:19:36;;;;;;;7.15;6.13;;;;;;;;;;5052464;28;20098;-69
2021/09/15 08:22:02;;;;;;;10.13;5.78;;;;;;;;;;5052012;28;20235;-69
2021/09/15 08:24:29;;;;;;;10.07;5.70;;;;;;;;;;5052191;28;20107;-69
2021/09/15 08:26:55;;;;;;;10.48;5.55;;;;;;;;;;5052231;28;20397;-69
2021/09/15 08:29:22;;;;;;;8.77;5.40;;;;;;;;;;5052219;28;20110;-70
2021/09/15 08:31:49;;;;;;;8.27;6.20;;;;;;;;;;5051950;28;20052;-71
2021/09/15 08:34:16;;;;;;;7.68;5.95;;;;;;;;;;5052042;28;20045;-71
2021/09/15 08:36:42;;;;;;;10.82;5.97;;;;;;;;;;5052493;28;20056;-71
2021/09/15 08:39:09;;;;;;;10.82;6.55;;;;;;;;;;5052069;28;20499;-71
2021/09/15 08:41:36;;;;;;;7.55;5.80;;;;;;;;;;5052006;28;20071;-71
2021/09/15 08:44:02;;;;;;;8.75;6.03;;;;;;;;;;5051452;28;20052;-70
2021/09/15 08:46:29;;;;;;;10.80;6.80;;;;;;;;;;5052036;28;20049;-70
2021/09/15 08:48:58;;;;;;;8.32;6.35;;;;;;;;;;5017585;28;20400;-71
2021/09/15 08:51:24;;;;;;;12.93;6.90;;;;;;;;;;5051980;28;20049;-71
2021/09/15 08:53:52;;;;;;;9.63;6.63;;;;;;;;;;5051523;28;20053;-71
2021/09/15 08:56:19;;;;;;;8.60;6.55;;;;;;;;;;5051781;28;20569;-71
2021/09/15 08:58:46;;;;;;;7.57;5.70;;;;;;;;;;5051450;28;20048;-71
2021/09/15 09:01:19;;;;;;;9.32;6.72;;;;;;;;;;5051721;28;20056;-71
2021/09/15 09:03:51;;;;;;;9.80;6.05;;;;;;;;;;5051375;28;20091;-71
2021/09/15 09:06:21;;;;;;;7.97;5.95;;;;;;;;;;5051649;28;20049;-71
2021/09/15 09:08:57;;;;;;;7.57;5.32;;;;;;;;;;5051531;28;20099;-71
2021/09/15 09:11:35;;;;;;;7.47;5.35;;;;;;;;;;5051812;28;20060;-71
2021/09/15 09:14:07;;;;;;;8.10;6.28;;;;;;;;;;5033813;28;20114;-71
2021/09/15 09:16:43;;;;;;;7.10;5.65;;;;;;;;;;5051704;28;20049;-71
2021/09/15 09:19:12;;;;;;;7.25;6.13;;;;;;;;;;5051507;28;20061;-71
2021/09/15 09:21:42;;;;;;;8.35;6.20;;;;;;;;;;5051630;28;20057;-71
2021/09/15 09:24:10;;;;;;;8.43;6.47;;;;;;;;;;5051348;28;20060;-71
2021/09/15 09:27:03;;;;;;;7.38;5.75;;;;;;;;;;5051624;28;20126;-71
2021/09/15 09:29:35;;;;;;;10.18;4.95;;;;;;;;;;5051656;28;20057;-71
2021/09/15 09:32:05;;;;;;;7.63;4.88;;;;;;;;;;5051372;28;20095;-71
2021/09/15 09:34:46;;;;;;;5.60;4.18;;;;;;;;;;5051310;28;20049;-71
2021/09/15 09:37:20;;;;;;;7.93;4.97;;;;;;;;;;5051563;28;20055;-71
2021/09/15 09:39:52;;;;;;;6.63;4.80;;;;;;;;;;5033810;28;20053;-71
2021/09/15 09:42:22;;;;;;;6.03;4.15;;;;;;;;;;5051391;28;20048;-71
2021/09/15 09:45:04;;;;;;;6.32;3.95;;;;;;;;;;5051211;28;20052;-71
2021/09/15 09:47:32;;;;;;;6.78;4.40;;;;;;;;;;5051724;28;20053;-71
2021/09/15 09:50:16;;;;;;;4.95;3.55;;;;;;;;;;5051292;28;20148;-71
2021/09/15 09:52:55;;;;;;;5.22;3.97;;;;;;;;;;5051119;28;20053;-71
2021/09/15 09:55:27;;;;;;;7.25;3.60;;;;;;;;;;5051200;28;20057;-71
2021/09/15 09:57:54;;;;;;;6.03;4.35;;;;;;;;;;5051040;28;20049;-71
2021/09/15 10:00:22;;;;;;;9.40;4.18;;;;;;;;;;5051287;28;20106;-71
2021/09/15 10:02:49;;;;;;;5.65;3.88;;;;;;;;;;5051138;28;20053;-72
2021/09/15 10:05:17;;;;;;;5.88;4.30;;;;;;;;;;5051312;28;20049;-71
2021/09/15 10:07:45;;;;;;;4.10;3.70;;;;;;;;;;5051031;28;20107;-71
2021/09/15 10:10:14;;;;;;;4.85;3.90;;;;;;;;;;5051090;28;20055;-71
2021/09/15 10:12:41;;;;;;;5.63;4.00;;;;;;;;;;5036912;28;20049;-71
2021/09/15 10:15:09;;;;;;;5.45;3.78;;;;;;;;;;5054676;28;20057;-71
2021/09/15 10:17:38;;;;;;;6.43;4.00;;;;;;;;;;5054727;28;20052;-71
2021/09/15 10:20:09;;;;;;;7.97;3.83;;;;;;;;;;5020665;28;20103;-71
2021/09/15 10:22:37;;;;;;;5.40;3.75;;;;;;;;;;5021268;28;20049;-72
2021/09/15 10:25:05;;;;;;;7.80;3.90;;;;;;;;;;5036928;28;20136;-71
2021/09/15 10:28:06;;;;;;;6.20;3.83;;;;;;;;;;5054618;28;20049;-72
2021/09/15 10:30:45;;;;;;;5.75;3.78;;;;;;;;;;5054467;28;20462;-71
2021/09/15 10:33:37;;;;;;;4.95;3.90;;;;;;;;;;5054235;28;20102;-71
2021/09/15 10:36:13;;;;;;;4.15;3.38;;;;;;;;;;5058168;28;20110;-72
2021/09/15 10:38:56;;;;;;;4.63;3.42;;;;;;;;;;5057932;28;20276;-72
2021/09/15 10:41:45;;;;;;;6.00;3.70;;;;;;;;;;5054439;28;20053;-71
2021/09/15 10:44:13;;;;;;;5.22;3.97;;;;;;;;;;5053997;28;20049;-71
2021/09/15 10:46:44;;;;;;;4.68;3.83;;;;;;;;;;5036462;28;20061;-71
2021/09/15 10:49:22;;;;;;;7.53;3.80;;;;;;;;;;5054243;28;20065;-71
2021/09/15 10:52:09;;;;;;;6.20;3.75;;;;;;;;;;5053882;28;20049;-71
2021/09/15 10:54:43;;;;;;;6.20;4.03;;;;;;;;;;5053957;28;20053;-71
2021/09/15 10:57:15;;;;;;;5.25;3.80;;;;;;;;;;5053873;28;20061;-71
2021/09/15 10:59:58;;;;;;;6.80;3.65;;;;;;;;;;5053945;28;20053;-71
2021/09/15 11:02:33;;;;;;;7.45;3.60;;;;;;;;;;5053666;28;20052;-71
2021/09/15 11:05:27;;;;;;;4.97;3.63;;;;;;;;;;5053573;28;20140;-71
2021/09/15 11:07:54;;;;;;;10.38;4.32;;;;;;;;;;5053697;28;20063;-71
2021/09/15 11:10:33;;;;;;;7.43;3.85;;;;;;;;;;5053786;28;20111;-71
2021/09/15 11:13:05;;;;;;;6.93;4.75;;;;;;;;;;5053478;28;20076;-71
2021/09/15 11:15:43;;;;;;;4.80;3.88;;;;;;;;;;5053639;28;20049;-71
2021/09/15 11:18:23;;;;;;;4.70;3.63;;;;;;;;;;5053610;28;20122;-71
2021/09/15 11:20:54;;;;;;;8.82;3.90;;;;;;;;;;5053413;28;20048;-71
2021/09/15 11:23:22;;;;;;;6.90;4.13;;;;;;;;;;5053122;28;20099;-71
2021/09/15 11:25:50;;;;;;;6.00;3.88;;;;;;;;;;5035580;28;20049;-71
2021/09/15 11:28:18;;;;;;;7.32;4.25;;;;;;;;;;5053494;28;20099;-71
2021/09/15 11:30:50;;;;;;;5.57;3.90;;;;;;;;;;5053746;28;20052;-71
2021/09/15 11:33:35;;;;;;;5.80;3.65;;;;;;;;;;5053369;28;20492;-71
2021/09/15 11:36:07;;;;;;;3.83;3.13;;;;;;;;;;5053350;28;20056;-71
2021/09/15 11:38:37;;;;;;;9.50;4.20;;;;;;;;;;5053264;28;20049;-71
2021/09/15 11:41:14;;;;;;;5.93;3.83;;;;;;;;;;5053129;28;20110;-71
2021/09/15 11:43:45;;;;;;;5.85;3.30;;;;;;;;;;5052805;28;20045;-71
2021/09/15 11:46:12;;;;;;;6.88;4.05;;;;;;;;;;5053078;28;20056;-70
2021/09/15 11:48:39;;;;;;;8.27;4.05;;;;;;;;;;5052998;28;20075;-70
2021/09/15 11:51:14;;;;;;;5.82;3.85;;;;;;;;;;5052789;28;20057;-70
2021/09/15 11:54:08;;;;;;;4.57;3.72;;;;;;;;;;5052564;28;20566;-70
2021/09/15 11:56:41;;;;;;;4.50;3.75;;;;;;;;;;5052866;28;20045;-70
2021/09/15 11:59:09;;;;;;;6.75;4.05;;;;;;;;;;5052877;28;20057;-71
2021/09/15 12:01:56;;;;;;;6.38;3.92;;;;;;;;;;5052634;28;20088;-71
2021/09/15 12:04:23;;;;;;;4.57;4.03;;;;;;;;;;5018617;28;20059;-71
2021/09/15 12:06:49;;;;;;;4.28;3.60;;;;;;;;;;5034783;28;20400;-71
2021/09/15 12:09:16;;;;;;;6.85;3.88;;;;;;;;;;5034839;28;20415;-71
2021/09/15 12:11:48;;;;;;;6.30;3.90;;;;;;;;;;5052418;28;20103;-70
2021/09/15 12:14:15;;;;;;;5.53;3.72;;;;;;;;;;5020026;28;20118;-71
2021/09/15 12:16:42;;;;;;;8.00;4.18;;;;;;;;;;5034824;28;20052;-71
2021/09/15 12:19:22;;;;;;;5.60;3.42;;;;;;;;;;5052391;28;20045;-71
2021/09/15 12:21:51;;;;;;;6.22;4.20;;;;;;;;;;5052141;28;20053;-71
2021/09/15 12:24:18;;;;;;;8.05;3.85;;;;;;;;;;5052027;28;20053;-71
2021/09/15 12:26:46;;;;;;;5.25;3.83;;;;;;;;;;5052223;28;20045;-71
2021/09/15 12:29:20;;;;;;;6.45;3.40;;;;;;;;;;5052179;28;20053;-71
2021/09/15 12:31:51;;;;;;;9.57;4.07;;;;;;;;;;5051951;28;20570;-71
2021/09/15 12:34:32;;;;;;;5.07;3.40;;;;;;;;;;5051298;28;20045;-71
2021/09/15 12:37:13;;;;;;;8.75;4.18;;;;;;;;;;5052253;28;20064;-71
2021/09/15 12:39:49;;;;;;;6.05;4.13;;;;;;;;;;5052055;28;20049;-71
2021/09/15 12:42:20;;;;;;;6.55;3.80;;;;;;;;;;5034101;28;20476;-71
2021/09/15 12:45:17;;;;;;;8.10;3.45;;;;;;;;;;5051989;28;20111;-71
2021/09/15 12:47:45;;;;;;;4.90;3.65;;;;;;;;;;5051861;28;20503;-71
2021/09/15 12:50:22;;;;;;;6.22;3.92;;;;;;;;;;5051807;28;20053;-71
2021/09/15 12:52:50;;;;;;;5.40;3.53;;;;;;;;;;5051533;28;20557;-71
2021/09/15 12:55:18;;;;;;;6.15;3.60;;;;;;;;;;5034013;28;20053;-71
2021/09/15 12:58:01;;;;;;;4.90;3.70;;;;;;;;;;5051769;28;20049;-71
2021/09/15 13:00:31;;;;;;;4.30;3.70;;;;;;;;;;5055505;28;20107;-71
2021/09/15 13:03:02;;;;;;;7.35;4.05;;;;;;;;;;5051350;28;20072;-71
2021/09/15 13:05:32;;;;;;;4.97;3.85;;;;;;;;;;5051981;28;20067;-71
2021/09/15 13:07:59;;;;;;;5.60;3.85;;;;;;;;;;5051568;28;20079;-71
2021/09/15 13:10:26;;;;;;;7.03;3.83;;;;;;;;;;5051700;28;20048;-71
2021/09/15 13:12:52;;;;;;;4.95;3.03;;;;;;;;;;5051188;28;20044;-70
2021/09/15 13:15:19;;;;;;;5.53;3.60;;;;;;;;;;5033974;28;20081;-71
2021/09/15 13:17:46;;;;;;;4.22;3.55;;;;;;;;;;5051552;28;20115;-70
2021/09/15 13:20:13;;;;;;;4.72;2.90;;;;;;;;;;5051537;28;20045;-71
2021/09/15 13:22:44;;;;;;;6.53;3.47;;;;;;;;;;5051310;28;20053;-71
2021/09/15 13:25:11;;;;;;;5.43;3.55;;;;;;;;;;5051516;28;20075;-71
2021/09/15 13:27:38;;;;;;;5.00;3.70;;;;;;;;;;5060143;28;20045;-71
2021/09/15 13:30:06;;;;;;;5.20;3.70;;;;;;;;;;5076951;28;20029;-70
2021/09/15 13:32:33;;;;;;;4.80;3.33;;;;;;;;;;5076578;28;20048;-70
2021/09/15 13:35:00;;;;;;;7.18;3.28;;;;;;;;;;5093190;23;20052;-64
2021/09/15 13:37:26;;;;;;;6.80;3.22;;;;;;;;;;5051402;28;20049;-64
2021/09/15 13:39:58;;;;;;;5.35;3.45;;;;;;;;;;5051291;28;20103;-64
2021/09/15 13:42:25;;;;;;;7.00;3.10;;;;;;;;;;5051194;28;20103;-64
2021/09/15 13:44:52;;;;;;;5.32;3.30;;;;;;;;;;5052664;28;20053;-64
2021/09/15 13:47:19;;;;;;;4.55;2.78;;;;;;;;;;5055189;28;20049;-64
2021/09/15 13:49:45;;;;;;;4.95;3.08;;;;;;;;;;5055162;28;20048;-64
2021/09/15 13:52:13;;;;;;;5.60;3.40;;;;;;;;;;5054849;28;20404;-64
2021/09/15 13:54:50;;;;;;;3.67;3.33;;;;;;;;;;5055118;28;20045;-64
2021/09/15 13:57:17;;;;;;;5.97;4.05;;;;;;;;;;5055019;28;20060;-64
2021/09/15 13:59:44;;;;;;;3.42;3.10;;;;;;;;;;5055042;28;20049;-65
2021/09/15 14:02:11;;;;;;;4.18;3.15;;;;;;;;;;5054737;28;20053;-64
2021/09/15 14:04:37;;;;;;;5.20;2.88;;;;;;;;;;5054889;28;20045;-64
2021/09/15 14:07:04;;;;;;;7.15;3.03;;;;;;;;;;5054677;28;20053;-63
2021/09/15 14:09:31;;;;;;;5.93;3.55;;;;;;;;;;5054837;28;20049;-64
2021/09/15 14:12:17;;;;;;;5.40;3.50;;;;;;;;;;5054742;28;20080;-64
2021/09/15 14:14:44;;;;;;;4.43;3.00;;;;;;;;;;5054686;28;20557;-64
2021/09/15 14:17:11;;;;;;;4.68;3.33;;;;;;;;;;5054573;28;20052;-63
2021/09/15 14:19:40;;;;;;;5.03;3.38;;;;;;;;;;5054898;28;20045;-64
2021/09/15 14:22:07;;;;;;;4.88;2.90;;;;;;;;;;5054286;28;20197;-64
2021/09/15 14:24:33;;;;;;;3.05;2.60;;;;;;;;;;5054421;28;20071;-64
2021/09/15 14:27:00;;;;;;;3.08;2.80;;;;;;;;;;5054466;28;20485;-64
2021/09/15 14:29:27;;;;;;;6.22;3.05;;;;;;;;;;5054491;28;20491;-64
2021/09/15 14:31:53;;;;;;;4.38;2.30;;;;;;;;;;5054199;28;20072;-64
2021/09/15 14:34:20;;;;;;;2.90;2.60;;;;;;;;;;5054155;28;20503;-64
2021/09/15 14:36:47;;;;;;;5.78;2.75;;;;;;;;;;5054394;28;20072;-64
2021/09/15 14:39:14;;;;;;;3.97;2.92;;;;;;;;;;5054268;28;20053;-64
2021/09/15 14:41:41;;;;;;;4.63;2.90;;;;;;;;;;5054283;28;20052;-64
2021/09/15 14:44:08;;;;;;;4.68;2.55;;;;;;;;;;5053926;28;20396;-64
2021/09/15 14:46:35;;;;;;;3.42;2.47;;;;;;;;;;5054245;28;20110;-64
2021/09/15 14:49:01;;;;;;;3.35;3.00;;;;;;;;;;5054007;28;20412;-64
2021/09/15 14:51:28;;;;;;;5.28;2.80;;;;;;;;;;5054046;28;20048;-65
2021/09/15 14:53:54;;;;;;;5.18;2.83;;;;;;;;;;5053672;28;20049;-64